createdAt,value
2022-09-05T00:00:25.118Z,2.72
2022-09-05T00:05:51.046Z,2.50
2022-09-05T00:11:41.278Z,2.38
2022-09-05T00:16:42.291Z,2.47
2022-09-05T00:24:27.147Z,2.50
2022-09-05T00:27:18.789Z,2.67
2022-09-05T00:32:26.184Z,2.80
2022-09-05T00:37:33.053Z,2.88
2022-09-05T00:42:46.200Z,2.55
2022-09-05T00:47:54.021Z,2.75
2022-09-05T00:53:07.247Z,3.05
2022-09-05T00:58:18.540Z,2.35
2022-09-05T01:03:33.421Z,2.78
2022-09-05T01:08:47.660Z,2.90
2022-09-05T01:13:53.661Z,2.47
2022-09-05T01:19:01.741Z,2.13
2022-09-05T01:24:09.832Z,2.55
2022-09-05T01:29:19.811Z,2.75
2022-09-05T01:34:31.491Z,2.80
2022-09-05T01:40:12.035Z,2.70
2022-09-05T01:45:10.249Z,2.90
2022-09-05T01:50:18.305Z,2.90
2022-09-05T01:55:27.022Z,2.95
2022-09-05T02:00:35.477Z,2.90
2022-09-05T02:05:56.081Z,3.30
2022-09-05T02:11:04.485Z,3.38
2022-09-05T02:16:13.745Z,3.53
2022-09-05T02:21:22.389Z,3.25
2022-09-05T02:26:27.356Z,3.70
2022-09-05T02:31:35.841Z,3.47
2022-09-05T02:36:43.131Z,3.40
2022-09-05T02:45:18.938Z,3.92
2022-09-05T02:47:16.829Z,3.30
2022-09-05T02:57:30.442Z,4.00
2022-09-05T02:58:06.119Z,3.65
2022-09-05T03:03:20.849Z,3.40
2022-09-05T03:08:27.796Z,4.00
2022-09-05T03:13:46.319Z,2.72
2022-09-05T03:19:11.723Z,3.53
2022-09-05T03:24:32.922Z,3.42
2022-09-05T03:29:47.212Z,3.10
2022-09-05T03:35:08.506Z,2.97
2022-09-05T03:40:26.392Z,2.95
2022-09-05T03:45:37.782Z,3.13
2022-09-05T03:55:18.627Z,2.72
2022-09-05T03:57:12.925Z,3.10
2022-09-05T04:07:14.934Z,3.08
2022-09-05T04:08:18.542Z,2.97
2022-09-05T04:12:48.969Z,2.95
2022-09-05T04:18:04.160Z,2.80
2022-09-05T04:23:15.715Z,2.78
2022-09-05T04:28:23.210Z,3.40
2022-09-05T04:33:35.831Z,2.80
2022-09-05T04:43:46.537Z,2.33
2022-09-05T04:48:56.421Z,2.80
2022-09-05T04:54:16.285Z,2.90
2022-09-05T05:03:39.202Z,2.92
2022-09-05T05:06:09.094Z,3.38
2022-09-05T05:13:59.644Z,2.85
2022-09-05T05:18:11.490Z,2.65
2022-09-05T05:21:14.862Z,3.03
2022-09-05T05:26:22.788Z,2.90
2022-09-05T05:31:27.837Z,2.97
2022-09-05T05:36:34.132Z,3.47
2022-09-05T05:41:40.799Z,3.58
2022-09-05T05:46:46.952Z,3.60
2022-09-05T05:52:02.022Z,3.00
2022-09-05T05:57:21.005Z,3.05
2022-09-05T06:02:42.389Z,3.70
2022-09-05T06:08:17.577Z,3.08
2022-09-05T06:15:01.922Z,2.90
2022-09-05T06:24:21.359Z,3.03
2022-09-05T06:29:34.582Z,3.60
2022-09-05T06:34:59.881Z,2.90
2022-09-05T06:40:09.545Z,2.58
2022-09-05T06:45:28.899Z,2.78
2022-09-05T06:51:07.028Z,2.60
2022-09-05T06:56:07.195Z,2.47
2022-09-05T07:01:10.724Z,2.63
2022-09-05T07:06:20.379Z,2.63
2022-09-05T07:11:26.719Z,2.80
2022-09-05T07:16:38.913Z,2.22
2022-09-05T07:21:46.631Z,2.47
2022-09-05T07:26:53.988Z,2.40
2022-09-05T07:31:59.932Z,2.70
2022-09-05T07:37:15.605Z,2.97
2022-09-05T07:42:22.409Z,2.90
2022-09-05T07:47:28.319Z,2.47
2022-09-05T07:56:56.184Z,2.70
2022-09-05T07:57:59.931Z,2.88
2022-09-05T08:03:09.928Z,2.70
2022-09-05T08:08:14.397Z,2.70
2022-09-05T08:13:24.693Z,3.00
2022-09-05T08:18:36.499Z,2.40
2022-09-05T08:23:51.777Z,2.15
2022-09-05T08:29:00.338Z,2.47
2022-09-05T08:34:03.504Z,2.50
2022-09-05T08:39:10.328Z,2.30
2022-09-05T08:46:40.232Z,2.60
2022-09-05T08:49:53.056Z,2.72
2022-09-05T08:55:07.044Z,2.85
2022-09-05T09:00:20.410Z,2.50
2022-09-05T09:05:58.071Z,2.60
2022-09-05T09:11:13.994Z,2.63
2022-09-05T09:16:25.641Z,2.53
2022-09-05T09:21:39.765Z,2.63
2022-09-05T09:26:52.724Z,2.97
2022-09-05T09:32:04.678Z,2.90
2022-09-05T09:37:48.207Z,3.13
2022-09-05T09:42:56.339Z,2.92
2022-09-05T09:48:06.119Z,2.90
2022-09-05T09:53:29.724Z,2.85
2022-09-05T09:58:54.831Z,3.08
2022-09-05T10:10:38.733Z,2.90
2022-09-05T10:11:00.720Z,2.75
2022-09-05T10:15:31.679Z,3.03
2022-09-05T10:21:17.048Z,2.80
2022-09-05T10:26:48.340Z,3.20
2022-09-05T10:35:06.908Z,2.90
2022-09-05T10:37:21.064Z,3.20
2022-09-05T10:42:29.233Z,2.75
2022-09-05T10:47:36.352Z,2.80
2022-09-05T10:52:43.487Z,2.95
2022-09-05T10:57:54.335Z,2.80
2022-09-05T11:02:59.180Z,2.67
2022-09-05T11:08:08.920Z,3.30
2022-09-05T11:13:16.709Z,2.75
2022-09-05T11:18:23.679Z,2.40
2022-09-05T11:23:40.493Z,2.60
2022-09-05T11:28:57.491Z,3.20
2022-09-05T11:36:33.702Z,2.50
2022-09-05T11:40:29.124Z,2.33
2022-09-05T11:45:25.614Z,2.65
2022-09-05T11:50:49.076Z,2.70
2022-09-05T11:56:09.122Z,2.30
2022-09-05T12:01:41.437Z,2.50
2022-09-05T12:07:26.893Z,2.40
2022-09-05T12:12:41.755Z,2.38
2022-09-05T12:17:51.828Z,3.10
2022-09-05T12:22:57.561Z,2.70
2022-09-05T12:28:54.628Z,2.40
2022-09-05T12:36:01.666Z,2.90
2022-09-05T12:41:23.662Z,2.63
2022-09-05T12:44:39.834Z,2.40
2022-09-05T12:49:52.111Z,2.80
2022-09-05T12:54:59.435Z,2.30
2022-09-05T13:03:05.724Z,2.55
2022-09-05T13:05:46.244Z,2.40
2022-09-05T13:14:47.150Z,2.28
2022-09-05T13:16:23.649Z,2.10
2022-09-05T13:21:29.979Z,2.33
2022-09-05T13:26:38.546Z,2.67
2022-09-05T13:38:10.787Z,2.42
2022-09-05T13:38:12.952Z,2.17
2022-09-05T13:43:11.941Z,2.10
2022-09-05T13:48:28.382Z,2.42
2022-09-05T13:53:36.751Z,3.38
2022-09-05T13:58:45.300Z,2.65
2022-09-05T14:05:05.498Z,2.25
2022-09-05T14:10:11.343Z,2.47
2022-09-05T14:15:25.078Z,2.30
2022-09-05T14:20:49.780Z,3.38
2022-09-05T14:25:57.997Z,2.38
2022-09-05T14:37:34.343Z,2.40
2022-09-05T14:37:43.660Z,2.50
2022-09-05T14:42:12.507Z,2.00
2022-09-05T14:47:35.015Z,2.30
2022-09-05T14:52:43.539Z,2.08
2022-09-05T15:02:45.297Z,2.25
2022-09-05T15:03:15.479Z,2.38
2022-09-05T15:10:06.395Z,2.40
2022-09-05T15:13:53.116Z,2.60
2022-09-05T15:18:58.655Z,2.10
2022-09-05T15:24:02.903Z,2.92
2022-09-05T15:29:13.772Z,3.22
2022-09-05T15:34:26.231Z,2.30
2022-09-05T15:39:32.146Z,2.10
2022-09-05T15:44:53.110Z,2.03
2022-09-05T15:50:00.063Z,2.10
2022-09-05T15:55:05.292Z,1.90
2022-09-05T16:00:09.814Z,1.83
2022-09-05T16:09:45.194Z,2.10
2022-09-05T16:11:19.794Z,2.00
2022-09-05T16:19:49.887Z,1.88
2022-09-05T16:23:32.673Z,2.00
2022-09-05T16:26:53.597Z,2.30
2022-09-05T16:32:14.365Z,1.70
2022-09-05T16:37:21.690Z,2.20
2022-09-05T16:42:45.770Z,2.10
2022-09-05T16:47:54.241Z,2.10
2022-09-05T16:53:28.308Z,2.15
2022-09-05T16:58:29.863Z,2.13
2022-09-05T17:03:36.897Z,2.25
2022-09-05T17:08:41.026Z,2.10
2022-09-05T17:13:46.351Z,1.92
2022-09-05T17:18:52.721Z,2.47
2022-09-05T17:29:15.722Z,2.67
2022-09-05T17:35:22.247Z,2.33
2022-09-05T17:40:38.035Z,2.75
2022-09-05T17:45:50.371Z,2.20
2022-09-05T17:51:00.692Z,2.78
2022-09-05T17:56:12.362Z,2.90
2022-09-05T18:01:17.037Z,3.00
2022-09-05T18:06:32.384Z,3.63
2022-09-05T18:11:40.430Z,2.90
2022-09-05T18:17:36.833Z,4.20
2022-09-05T18:22:20.679Z,3.28
2022-09-05T18:28:04.886Z,3.70
2022-09-05T18:33:56.122Z,6.50
2022-09-05T18:38:52.300Z,5.38
2022-09-05T18:44:13.267Z,3.30
2022-09-05T18:50:22.202Z,3.90
2022-09-05T18:54:48.357Z,3.60
2022-09-05T19:00:13.835Z,4.93
2022-09-05T19:05:28.313Z,4.63
2022-09-05T19:10:35.592Z,8.18
2022-09-05T19:15:48.005Z,6.10
2022-09-05T19:21:05.425Z,11.13
2022-09-05T19:26:15.024Z,5.43
2022-09-05T19:36:58.456Z,6.50
2022-09-05T19:37:29.247Z,4.88
2022-09-05T19:47:26.782Z,4.10
2022-09-05T19:48:07.416Z,4.18
2022-09-05T19:53:05.850Z,6.43
2022-09-05T19:58:19.090Z,4.25
2022-09-05T20:03:24.444Z,9.23
2022-09-05T20:08:31.014Z,4.47
2022-09-05T20:13:34.187Z,4.00
2022-09-05T20:18:40.243Z,8.15
2022-09-05T20:23:44.629Z,4.40
2022-09-05T20:28:51.491Z,4.72
2022-09-05T20:34:00.499Z,8.32
2022-09-05T20:43:26.648Z,8.38
2022-09-05T20:44:41.339Z,4.72
2022-09-05T20:54:28.652Z,9.38
2022-09-05T20:55:39.176Z,5.30
2022-09-05T21:00:41.244Z,3.80
2022-09-05T21:06:12.841Z,3.95
2022-09-05T21:11:16.803Z,3.60
2022-09-05T21:16:21.748Z,4.28
2022-09-05T21:21:29.584Z,4.00
2022-09-05T21:26:33.274Z,4.03
2022-09-05T21:31:44.481Z,4.13
2022-09-05T21:36:50.560Z,4.30
2022-09-05T21:42:16.990Z,3.97
2022-09-05T21:47:42.245Z,4.07
2022-09-05T21:53:46.947Z,4.40
2022-09-05T21:59:18.252Z,3.95
2022-09-05T22:03:42.413Z,3.90
2022-09-05T22:09:11.400Z,3.93
2022-09-05T22:14:09.598Z,3.50
2022-09-05T22:19:12.781Z,4.30
2022-09-05T22:24:17.523Z,3.22
2022-09-05T22:29:20.330Z,3.28
2022-09-05T22:34:23.279Z,3.58
2022-09-05T22:39:37.141Z,3.70
2022-09-05T22:44:41.340Z,3.55
2022-09-05T22:49:44.188Z,3.75
2022-09-05T22:54:48.796Z,3.70
2022-09-05T22:59:51.637Z,3.90
2022-09-05T23:04:54.290Z,3.95
2022-09-05T23:09:58.567Z,3.73
2022-09-05T23:15:01.311Z,4.05
2022-09-05T23:20:05.287Z,3.73
2022-09-05T23:25:09.999Z,3.90
2022-09-05T23:30:13.053Z,4.18
2022-09-05T23:35:16.176Z,4.30
2022-09-05T23:40:22.044Z,3.95
2022-09-05T23:45:25.104Z,3.80
2022-09-05T23:50:28.453Z,4.13
2022-09-05T23:55:32.998Z,3.90
